Time;durP1;ratioP1;P1;durP2;ratioP2;P2;SDS_P1;SDS_P2;PMS_P1;PMS_P2;Temp;Humidity;BMP_temperature;BMP_pressure;BME280_temperature;BME280_humidity;BME280_pressure;Samples;Min_cycle;Max_cycle;Signal;HPM_P1;HPM_P2
2023/07/20 00:01:03;;;;;;;8.90;2.93;;;22.10;1.00;;;;;;5007832;28;20240;-77
2023/07/20 00:03:29;;;;;;;4.50;2.50;;;22.10;1.00;;;;;;5006106;28;20240;-76
2023/07/20 00:05:54;;;;;;;5.77;3.00;;;22.10;1.00;;;;;;5008529;28;20197;-77
2023/07/20 00:08:20;;;;;;;6.40;2.97;;;21.90;1.00;;;;;;5008931;28;20583;-77
2023/07/20 00:10:45;;;;;;;6.20;3.00;;;21.90;1.00;;;;;;5010043;28;20227;-76
2023/07/20 00:13:11;;;;;;;5.07;2.60;;;21.90;1.00;;;;;;5007972;28;20210;-75
2023/07/20 00:15:37;;;;;;;5.77;2.80;;;21.90;1.00;;;;;;5006723;28;20652;-76
2023/07/20 00:18:03;;;;;;;6.90;2.90;;;22.00;1.00;;;;;;5010179;28;20174;-76
2023/07/20 00:20:29;;;;;;;23.57;3.40;;;21.80;1.00;;;;;;5009836;28;20189;-76
2023/07/20 00:22:57;;;;;;;5.60;2.80;;;21.70;1.00;;;;;;5009645;28;20448;-77
2023/07/20 00:25:23;;;;;;;5.10;2.80;;;;;;;;;;5008060;28;20186;-77
2023/07/20 00:27:49;;;;;;;5.20;3.07;;;21.50;1.00;;;;;;5009492;28;20512;-76
2023/07/20 00:30:14;;;;;;;5.13;2.83;;;21.50;1.00;;;;;;5009709;28;20189;-76
2023/07/20 00:32:40;;;;;;;6.40;3.27;;;21.40;1.00;;;;;;5007491;28;20210;-76
2023/07/20 00:35:05;;;;;;;5.23;2.90;;;21.40;1.00;;;;;;5009497;28;20273;-76
2023/07/20 00:37:31;;;;;;;5.50;2.97;;;21.30;1.00;;;;;;5007604;28;20193;-76
2023/07/20 00:39:57;;;;;;;5.07;2.50;;;21.20;1.00;;;;;;5009808;28;20174;-79
2023/07/20 00:42:22;;;;;;;4.47;2.93;;;21.10;1.00;;;;;;5009472;28;20242;-76
2023/07/20 00:44:48;;;;;;;5.40;3.03;;;21.10;1.00;;;;;;5009677;28;20178;-75
2023/07/20 00:47:13;;;;;;;9.17;3.27;;;21.00;1.00;;;;;;5009993;28;20190;-79
2023/07/20 00:49:39;;;;;;;4.33;2.70;;;20.90;1.00;;;;;;5008916;28;20186;-75
2023/07/20 00:52:07;;;;;;;5.00;3.00;;;20.80;1.00;;;;;;5010450;28;20224;-76
2023/07/20 00:54:33;;;;;;;7.00;3.20;;;20.80;1.00;;;;;;5010095;28;20189;-77
2023/07/20 00:57:00;;;;;;;5.23;3.30;;;20.80;1.00;;;;;;5010705;28;20874;-75
2023/07/20 00:59:26;;;;;;;4.60;2.93;;;20.80;1.00;;;;;;5010126;28;20445;-76
2023/07/20 01:01:51;;;;;;;5.20;2.87;;;20.70;1.00;;;;;;5009608;28;20451;-75
2023/07/20 01:04:17;;;;;;;6.30;3.30;;;20.70;1.00;;;;;;5010618;28;20217;-76
2023/07/20 01:06:56;;;;;;;4.27;2.97;;;20.60;1.00;;;;;;5011553;28;20628;-76
2023/07/20 01:09:42;;;;;;;8.60;3.00;;;20.60;1.00;;;;;;5010240;28;20213;-77
2023/07/20 01:12:12;;;;;;;5.20;3.00;;;20.40;1.00;;;;;;5011179;28;20421;-76
2023/07/20 01:14:37;;;;;;;5.73;3.00;;;20.40;1.00;;;;;;5010709;28;21022;-75
2023/07/20 01:17:03;;;;;;;4.40;2.80;;;20.30;1.00;;;;;;5009520;28;20527;-75
2023/07/20 01:19:29;;;;;;;5.83;3.00;;;20.30;1.00;;;;;;5015210;28;20190;-79
2023/07/20 01:22:10;;;;;;;6.27;3.13;;;20.20;1.00;;;;;;5014723;28;20189;-77
2023/07/20 01:25:10;;;;;;;7.60;3.20;;;20.20;1.00;;;;;;5011132;28;20186;-75
2023/07/20 01:27:57;;;;;;;5.63;3.07;;;20.20;1.00;;;;;;5013465;28;20456;-75
2023/07/20 01:30:34;;;;;;;7.23;3.17;;;20.20;1.00;;;;;;5010307;28;20417;-76
2023/07/20 01:33:01;;;;;;;5.93;2.97;;;20.10;1.00;;;;;;5003308;28;21259;-76
2023/07/20 01:35:30;;;;;;;7.40;2.70;;;20.00;1.00;;;;;;5012018;28;20425;-76
2023/07/20 01:37:57;;;;;;;5.73;3.50;;;20.00;1.00;;;;;;5011520;28;20436;-75
2023/07/20 01:40:25;;;;;;;6.47;3.30;;;19.90;1.00;;;;;;5012383;28;20974;-75
2023/07/20 01:42:52;;;;;;;6.90;3.03;;;19.80;1.00;;;;;;5011889;28;20528;-76
2023/07/20 01:45:17;;;;;;;5.60;2.90;;;19.70;1.00;;;;;;5012606;28;20425;-75
2023/07/20 01:47:43;;;;;;;5.20;3.20;;;19.60;1.00;;;;;;5010693;28;20435;-75
2023/07/20 01:50:09;;;;;;;5.00;3.20;;;19.40;1.00;;;;;;5009832;28;20210;-75
2023/07/20 01:52:35;;;;;;;7.00;3.17;;;19.40;1.00;;;;;;5011579;28;20320;-75
2023/07/20 01:55:00;;;;;;;7.70;3.13;;;19.30;1.00;;;;;;5012299;28;20233;-75
2023/07/20 01:57:26;;;;;;;6.80;3.33;;;19.20;1.00;;;;;;5010434;28;20533;-75
2023/07/20 01:59:51;;;;;;;4.67;3.40;;;19.20;1.00;;;;;;5009262;28;20222;-76
2023/07/20 02:02:18;;;;;;;8.10;3.10;;;19.10;1.00;;;;;;5010683;28;20209;-76
2023/07/20 02:04:43;;;;;;;7.23;3.33;;;19.00;1.00;;;;;;5011002;28;20664;-77
2023/07/20 02:07:09;;;;;;;5.50;3.07;;;19.00;1.00;;;;;;5010120;28;20429;-75
2023/07/20 02:09:34;;;;;;;6.27;3.30;;;18.90;1.00;;;;;;5012203;28;20182;-75
2023/07/20 02:12:00;;;;;;;6.27;3.23;;;18.80;1.00;;;;;;5010056;28;20193;-75
2023/07/20 02:14:26;;;;;;;4.93;3.00;;;18.80;1.00;;;;;;5005900;28;20221;-76
2023/07/20 02:16:52;;;;;;;5.00;3.20;;;18.70;1.00;;;;;;5010887;28;20189;-76
2023/07/20 02:19:18;;;;;;;5.50;3.30;;;18.70;1.00;;;;;;5011797;28;20178;-77
2023/07/20 02:21:43;;;;;;;6.73;3.97;;;18.60;1.00;;;;;;5011611;28;20424;-75
2023/07/20 02:24:09;;;;;;;4.80;2.90;;;18.60;1.00;;;;;;5008697;28;20461;-76
2023/07/20 02:26:34;;;;;;;4.60;3.17;;;18.60;1.00;;;;;;5009311;28;20194;-75
2023/07/20 02:29:00;;;;;;;6.00;3.43;;;18.50;1.00;;;;;;5007783;28;20191;-76
2023/07/20 02:31:25;;;;;;;5.20;3.37;;;18.40;1.00;;;;;;5009317;28;20248;-75
2023/07/20 02:33:51;;;;;;;6.00;3.63;;;18.50;1.00;;;;;;5009133;28;20379;-77
2023/07/20 02:36:17;;;;;;;7.03;3.20;;;18.50;1.00;;;;;;5010391;28;20257;-75
2023/07/20 02:38:43;;;;;;;6.90;3.00;;;18.40;1.00;;;;;;5008023;28;20186;-75
2023/07/20 02:41:08;;;;;;;4.60;3.27;;;18.40;1.00;;;;;;5009982;28;20456;-75
2023/07/20 02:43:34;;;;;;;10.83;3.30;;;18.40;1.00;;;;;;5009573;28;20701;-75
2023/07/20 02:45:59;;;;;;;6.23;3.53;;;18.40;1.00;;;;;;5010262;28;20241;-75
2023/07/20 02:48:25;;;;;;;5.17;3.40;;;18.30;1.00;;;;;;5009110;28;20244;-72
2023/07/20 02:50:50;;;;;;;4.67;3.00;;;18.50;1.00;;;;;;5009921;28;20731;-75
2023/07/20 02:53:16;;;;;;;7.27;3.63;;;18.60;1.00;;;;;;5009823;28;20592;-75
2023/07/20 02:55:41;;;;;;;6.30;3.70;;;18.10;1.00;;;;;;5007262;28;20221;-76
2023/07/20 02:58:07;;;;;;;5.57;3.43;;;18.00;1.00;;;;;;5008984;28;20214;-75
2023/07/20 03:00:33;;;;;;;5.23;3.33;;;17.90;1.00;;;;;;5008093;28;20187;-75
2023/07/20 03:02:59;;;;;;;5.53;3.30;;;17.80;1.00;;;;;;5009938;28;20515;-73
2023/07/20 03:05:27;;;;;;;6.43;3.20;;;17.80;1.00;;;;;;5009112;28;20191;-75
2023/07/20 03:07:53;;;;;;;4.60;3.40;;;17.80;1.00;;;;;;5007678;28;20225;-75
2023/07/20 03:10:19;;;;;;;7.23;3.67;;;17.70;1.00;;;;;;5009903;28;20464;-75
2023/07/20 03:12:44;;;;;;;8.10;3.87;;;17.70;1.00;;;;;;5008541;28;20226;-75
2023/07/20 03:15:10;;;;;;;6.83;3.70;;;17.70;1.00;;;;;;5008712;28;20187;-75
2023/07/20 03:17:35;;;;;;;5.37;3.83;;;17.70;1.00;;;;;;5008374;28;20214;-75
2023/07/20 03:20:01;;;;;;;5.40;3.70;;;17.70;1.00;;;;;;5009608;28;20707;-75
2023/07/20 03:22:27;;;;;;;5.07;3.63;;;17.70;1.00;;;;;;5008961;28;20206;-76
2023/07/20 03:24:52;;;;;;;5.37;3.33;;;17.70;1.00;;;;;;5006541;28;20182;-75
2023/07/20 03:27:18;;;;;;;5.83;3.57;;;17.70;1.00;;;;;;5009282;28;20429;-77
2023/07/20 03:29:44;;;;;;;6.63;3.87;;;17.70;1.00;;;;;;5006558;28;20744;-75
2023/07/20 03:32:10;;;;;;;5.83;3.70;;;17.70;1.00;;;;;;5003697;28;20182;-75
2023/07/20 03:34:36;;;;;;;6.40;3.80;;;17.70;1.00;;;;;;5007407;28;20186;-75
2023/07/20 03:37:04;;;;;;;4.67;3.50;;;17.70;1.00;;;;;;5008147;28;20940;-76
2023/07/20 03:39:29;;;;;;;5.27;3.60;;;17.60;1.00;;;;;;5008378;28;20206;-75
2023/07/20 03:41:55;;;;;;;11.23;3.87;;;17.60;1.00;;;;;;5005355;28;20468;-77
2023/07/20 03:44:20;;;;;;;9.80;3.90;;;17.60;1.00;;;;;;5007984;28;20190;-75
2023/07/20 03:46:46;;;;;;;5.40;3.80;;;17.60;1.00;;;;;;5008585;28;20193;-75
2023/07/20 03:49:11;;;;;;;5.07;3.60;;;17.50;1.00;;;;;;5006258;28;20189;-75
2023/07/20 03:51:37;;;;;;;5.67;4.00;;;17.40;1.00;;;;;;5008688;28;20198;-74
2023/07/20 03:54:02;;;;;;;4.40;3.57;;;17.40;1.00;;;;;;5007417;28;20271;-75
2023/07/20 03:56:28;;;;;;;10.50;3.57;;;17.50;1.00;;;;;;5006849;28;20186;-75
2023/07/20 03:58:53;;;;;;;6.67;4.00;;;17.50;1.00;;;;;;5004410;28;20545;-77
2023/07/20 04:01:19;;;;;;;6.40;3.60;;;17.40;1.00;;;;;;5005598;28;20178;-75
2023/07/20 04:03:44;;;;;;;4.60;3.30;;;17.70;1.00;;;;;;5003970;28;20211;-75
2023/07/20 04:06:10;;;;;;;9.90;3.63;;;17.40;1.00;;;;;;5008636;28;20193;-74
2023/07/20 04:08:37;;;;;;;4.53;3.17;;;17.50;1.00;;;;;;5007219;28;20538;-75
2023/07/20 04:11:02;;;;;;;8.70;3.47;;;17.50;1.00;;;;;;5008250;28;20197;-75
2023/07/20 04:13:28;;;;;;;5.50;3.43;;;17.60;1.00;;;;;;5008036;28;20473;-74
2023/07/20 04:15:55;;;;;;;5.20;3.37;;;17.30;1.00;;;;;;5006888;28;20190;-75
2023/07/20 04:18:20;;;;;;;4.87;3.30;;;17.60;1.00;;;;;;5008292;28;20189;-72
2023/07/20 04:20:46;;;;;;;4.43;3.30;;;17.60;1.00;;;;;;5007602;28;20437;-75
2023/07/20 04:23:11;;;;;;;4.23;3.57;;;17.60;1.00;;;;;;5007402;28;20209;-75
2023/07/20 04:25:39;;;;;;;7.07;4.07;;;17.70;1.00;;;;;;5007815;28;20272;-77
2023/07/20 04:28:08;;;;;;;4.67;3.33;;;17.70;1.00;;;;;;5002424;28;20195;-75
2023/07/20 04:30:37;;;;;;;10.33;4.20;;;17.80;1.00;;;;;;5007173;28;20549;-75
2023/07/20 04:33:03;;;;;;;4.50;3.67;;;17.90;1.00;;;;;;5003393;28;20744;-76
2023/07/20 04:35:48;;;;;;;5.20;3.70;;;18.00;1.00;;;;;;5006956;28;20448;-75
2023/07/20 04:38:15;;;;;;;8.70;3.87;;;18.00;1.00;;;;;;5003405;28;20499;-75
2023/07/20 04:40:41;;;;;;;6.50;3.43;;;18.10;1.00;;;;;;5007905;28;20982;-75
2023/07/20 04:43:07;;;;;;;5.30;3.63;;;18.20;1.00;;;;;;5005978;28;20465;-76
2023/07/20 04:45:32;;;;;;;7.43;3.83;;;18.30;1.00;;;;;;5008108;28;20456;-76
2023/07/20 04:47:58;;;;;;;6.63;3.30;;;18.50;1.00;;;;;;5007451;28;20186;-77
2023/07/20 04:50:25;;;;;;;6.73;3.60;;;18.50;1.00;;;;;;5007599;28;20691;-75
2023/07/20 04:52:50;;;;;;;7.10;3.90;;;18.70;1.00;;;;;;5010521;28;20206;-75
2023/07/20 04:55:16;;;;;;;9.80;4.30;;;18.70;1.00;;;;;;5010039;28;20440;-75
2023/07/20 04:57:41;;;;;;;11.73;4.40;;;18.70;1.00;;;;;;5011406;28;20185;-75
2023/07/20 05:00:10;;;;;;;7.33;3.80;;;18.70;1.00;;;;;;5011161;28;20261;-75
2023/07/20 05:02:35;;;;;;;6.73;3.37;;;18.80;1.00;;;;;;5010405;28;20205;-76
2023/07/20 05:05:02;;;;;;;6.00;3.97;;;18.80;1.00;;;;;;5011050;28;20437;-75
2023/07/20 05:07:27;;;;;;;6.20;3.60;;;19.00;1.00;;;;;;5011117;28;21939;-74
2023/07/20 05:09:53;;;;;;;5.83;3.90;;;19.00;1.00;;;;;;5009885;28;20433;-77
2023/07/20 05:12:18;;;;;;;8.13;3.70;;;19.00;1.00;;;;;;5010547;28;20233;-73
2023/07/20 05:14:44;;;;;;;8.53;3.77;;;19.10;1.00;;;;;;5009420;28;20556;-75
2023/07/20 05:17:09;;;;;;;7.90;3.60;;;19.00;1.00;;;;;;5008169;28;20178;-75
2023/07/20 05:19:35;;;;;;;4.53;3.20;;;19.00;1.00;;;;;;5010432;28;20192;-76
2023/07/20 05:22:00;;;;;;;6.20;3.77;;;19.10;1.00;;;;;;5010961;28;20261;-75
2023/07/20 05:24:26;;;;;;;7.77;3.90;;;19.10;1.00;;;;;;5010107;28;20270;-74
2023/07/20 05:26:51;;;;;;;6.07;3.90;;;19.20;1.00;;;;;;5011311;28;20683;-76
2023/07/20 05:29:17;;;;;;;7.37;4.20;;;19.40;1.00;;;;;;5008884;28;20183;-75
2023/07/20 05:31:42;;;;;;;11.40;4.23;;;20.10;1.00;;;;;;5007271;28;20263;-74
2023/07/20 05:34:08;;;;;;;6.50;4.20;;;19.30;1.00;;;;;;5011993;28;20237;-76
2023/07/20 05:36:33;;;;;;;6.40;3.83;;;19.20;1.00;;;;;;5011219;28;20719;-75
2023/07/20 05:38:59;;;;;;;7.00;4.27;;;19.30;1.00;;;;;;5008390;28;20209;-75
2023/07/20 05:41:24;;;;;;;7.20;3.70;;;19.40;1.00;;;;;;5013540;28;20182;-75
2023/07/20 05:43:50;;;;;;;6.17;3.70;;;19.30;1.00;;;;;;5010076;28;20197;-75
2023/07/20 05:46:15;;;;;;;10.30;4.27;;;19.20;1.00;;;;;;5012971;28;20336;-75
2023/07/20 05:48:41;;;;;;;7.27;3.57;;;19.20;1.00;;;;;;5011830;28;20194;-76
2023/07/20 05:51:06;;;;;;;9.03;3.97;;;19.30;1.00;;;;;;5010134;28;20178;-76
2023/07/20 05:53:32;;;;;;;6.47;4.00;;;19.50;1.00;;;;;;5010728;28;20213;-75
2023/07/20 05:55:57;;;;;;;6.60;3.53;;;19.90;1.00;;;;;;5011966;28;20189;-76
2023/07/20 05:58:24;;;;;;;8.13;3.77;;;20.20;1.00;;;;;;5011080;28;20312;-76
2023/07/20 06:00:50;;;;;;;6.37;3.53;;;20.30;1.00;;;;;;5011632;28;20648;-76
2023/07/20 06:03:16;;;;;;;8.47;3.60;;;20.40;1.00;;;;;;5010437;28;20464;-76
2023/07/20 06:05:42;;;;;;;7.17;3.80;;;20.50;1.00;;;;;;5012046;28;20924;-76
2023/07/20 06:08:08;;;;;;;7.73;3.67;;;20.50;1.00;;;;;;5011200;28;20426;-76
2023/07/20 06:10:33;;;;;;;4.70;3.20;;;20.40;1.00;;;;;;5012181;28;20425;-76
2023/07/20 06:12:59;;;;;;;4.60;3.33;;;20.20;1.00;;;;;;5010224;28;20205;-75
2023/07/20 06:15:26;;;;;;;7.27;3.60;;;20.10;1.00;;;;;;5015057;28;20185;-75
2023/07/20 06:17:52;;;;;;;9.60;3.80;;;20.20;1.00;;;;;;5011419;28;20669;-76
2023/07/20 06:20:17;;;;;;;8.60;3.30;;;20.40;1.00;;;;;;5013491;28;20487;-76
2023/07/20 06:22:44;;;;;;;8.00;3.47;;;20.50;1.00;;;;;;5008895;28;20252;-76
2023/07/20 06:25:10;;;;;;;6.97;3.50;;;20.60;1.00;;;;;;5007971;28;20182;-76
2023/07/20 06:27:36;;;;;;;8.63;3.87;;;20.70;1.00;;;;;;5008908;28;20938;-76
2023/07/20 06:30:01;;;;;;;6.87;3.77;;;20.80;1.00;;;;;;5007935;28;20471;-75
2023/07/20 06:32:27;;;;;;;12.27;3.63;;;21.10;1.00;;;;;;5006653;28;20723;-76
2023/07/20 06:34:52;;;;;;;6.33;3.37;;;21.30;1.00;;;;;;5008937;28;20182;-76
2023/07/20 06:37:19;;;;;;;10.82;4.47;;;21.40;1.00;;;;;;5014008;28;20543;-75
2023/07/20 06:39:45;;;;;;;6.80;3.57;;;21.80;1.00;;;;;;5010393;28;20182;-75
2023/07/20 06:42:11;;;;;;;8.70;3.50;;;21.40;1.00;;;;;;5011484;28;20946;-76
2023/07/20 06:44:37;;;;;;;7.07;3.47;;;21.40;1.00;;;;;;5016340;28;20240;-75
2023/07/20 06:47:03;;;;;;;5.40;3.67;;;21.60;1.00;;;;;;5018651;28;20197;-75
2023/07/20 06:49:28;;;;;;;11.20;3.80;;;21.70;1.00;;;;;;5010589;28;20221;-75
2023/07/20 06:51:54;;;;;;;9.03;3.67;;;21.50;1.00;;;;;;5011381;28;20555;-75
2023/07/20 06:54:20;;;;;;;6.23;3.50;;;21.40;1.00;;;;;;5011081;28;20206;-75
2023/07/20 06:56:45;;;;;;;6.20;3.40;;;21.40;1.00;;;;;;5011732;28;20193;-76
2023/07/20 06:59:11;;;;;;;7.27;3.50;;;21.40;1.00;;;;;;5015554;28;20174;-75
2023/07/20 07:01:36;;;;;;;8.23;4.13;;;21.60;1.00;;;;;;5011187;28;20212;-75
2023/07/20 07:04:02;;;;;;;7.90;3.70;;;21.70;1.00;;;;;;5010759;28;20210;-75
2023/07/20 07:06:28;;;;;;;5.70;3.70;;;21.70;1.00;;;;;;5011328;28;20197;-75
2023/07/20 07:08:54;;;;;;;10.23;3.80;;;21.70;1.00;;;;;;5010266;28;20186;-76
2023/07/20 07:11:23;;;;;;;6.70;3.40;;;21.90;1.00;;;;;;5011192;28;20443;-75
2023/07/20 07:13:51;;;;;;;8.37;4.10;;;22.00;1.00;;;;;;5008720;28;20209;-74
2023/07/20 07:16:18;;;;;;;8.43;3.13;;;22.20;1.00;;;;;;5003704;28;20437;-75
2023/07/20 07:18:47;;;;;;;6.93;3.40;;;22.40;1.00;;;;;;5010811;28;21040;-77
2023/07/20 07:21:13;;;;;;;13.00;3.27;;;22.70;1.00;;;;;;5009396;28;20429;-77
2023/07/20 07:23:39;;;;;;;5.97;3.40;;;22.90;1.00;;;;;;5010558;28;20480;-77
2023/07/20 07:26:05;;;;;;;7.37;3.53;;;23.10;1.00;;;;;;5008869;28;20186;-78
2023/07/20 07:28:31;;;;;;;6.50;3.43;;;22.80;1.00;;;;;;5010378;28;20975;-77
2023/07/20 07:30:57;;;;;;;7.27;3.37;;;22.70;1.00;;;;;;5008756;28;20635;-78
2023/07/20 07:33:23;;;;;;;8.70;3.73;;;22.70;1.00;;;;;;5008408;28;20480;-78
2023/07/20 07:35:52;;;;;;;7.07;3.70;;;22.80;1.00;;;;;;5012234;28;20675;-77
2023/07/20 07:38:19;;;;;;;5.90;3.17;;;23.00;1.00;;;;;;5002866;28;20181;-78
2023/07/20 07:40:45;;;;;;;4.40;2.70;;;23.20;1.00;;;;;;5010499;28;20444;-77
2023/07/20 07:43:11;;;;;;;7.77;3.30;;;23.40;1.00;;;;;;5009680;28;21181;-77
2023/07/20 07:45:37;;;;;;;4.50;3.10;;;23.50;1.00;;;;;;5010109;28;20220;-78
2023/07/20 07:48:04;;;;;;;4.80;3.23;;;25.60;1.00;;;;;;5009717;28;20436;-77
2023/07/20 07:50:29;;;;;;;7.37;3.30;;;23.50;1.00;;;;;;5009926;28;20190;-76
2023/07/20 07:52:55;;;;;;;5.57;3.20;;;23.60;1.00;;;;;;5007952;28;20468;-75
2023/07/20 07:55:20;;;;;;;5.10;3.30;;;24.10;1.00;;;;;;5009661;28;20695;-78
2023/07/20 07:57:47;;;;;;;5.47;3.27;;;24.40;1.00;;;;;;5010130;28;20216;-77
2023/07/20 08:00:14;;;;;;;6.63;3.10;;;24.50;1.00;;;;;;5009485;28;20200;-76
2023/07/20 08:02:41;;;;;;;6.80;2.80;;;24.50;1.00;;;;;;5010085;28;20453;-77
2023/07/20 08:05:07;;;;;;;6.03;2.70;;;24.70;1.00;;;;;;5007033;28;20421;-75
2023/07/20 08:07:33;;;;;;;4.60;2.60;;;24.60;1.00;;;;;;5007190;28;20444;-78
2023/07/20 08:10:00;;;;;;;8.73;2.83;;;24.70;1.00;;;;;;5007993;28;20185;-76
2023/07/20 08:12:26;;;;;;;4.83;2.43;;;25.10;1.00;;;;;;5009165;28;20205;-77
2023/07/20 08:14:51;;;;;;;5.10;2.70;;;24.70;1.00;;;;;;5009618;28;20425;-77
2023/07/20 08:17:17;;;;;;;5.40;2.67;;;24.10;1.00;;;;;;5006463;28;20181;-77
2023/07/20 08:19:44;;;;;;;5.83;2.80;;;24.60;1.00;;;;;;5006750;28;20839;-76
2023/07/20 08:22:09;;;;;;;6.57;2.57;;;25.20;1.00;;;;;;5008152;28;20182;-77
2023/07/20 08:24:39;;;;;;;6.73;2.70;;;25.20;1.00;;;;;;5006097;28;20536;-78
2023/07/20 08:27:04;;;;;;;6.53;2.67;;;24.90;1.00;;;;;;5007141;28;20548;-77
2023/07/20 08:29:30;;;;;;;5.13;2.43;;;24.80;1.00;;;;;;5007748;28;20433;-79
2023/07/20 08:31:56;;;;;;;10.53;2.80;;;24.50;1.00;;;;;;5009669;28;20664;-78
2023/07/20 08:34:21;;;;;;;4.83;2.70;;;24.50;1.00;;;;;;5008650;28;20222;-77
2023/07/20 08:36:47;;;;;;;5.67;2.60;;;24.20;1.00;;;;;;5008977;28;20186;-77
2023/07/20 08:39:12;;;;;;;4.50;2.57;;;24.40;1.00;;;;;;5008753;28;20603;-78
2023/07/20 08:41:39;;;;;;;5.30;3.00;;;24.70;1.00;;;;;;5009518;28;20182;-77
2023/07/20 08:44:05;;;;;;;5.97;2.67;;;25.10;1.00;;;;;;5005173;28;20608;-78
2023/07/20 08:46:31;;;;;;;6.30;3.10;;;25.50;1.00;;;;;;5008409;28;20959;-78
2023/07/20 08:48:58;;;;;;;5.07;2.50;;;25.60;1.00;;;;;;5009408;28;20535;-77
2023/07/20 08:51:24;;;;;;;6.93;2.60;;;25.60;1.00;;;;;;5011599;28;20441;-76
2023/07/20 08:53:52;;;;;;;5.33;3.00;;;25.70;1.00;;;;;;5010710;28;20484;-75
2023/07/20 08:56:19;;;;;;;7.83;2.80;;;25.50;1.00;;;;;;5008699;28;20425;-76
2023/07/20 08:58:46;;;;;;;5.43;3.13;;;25.60;1.00;;;;;;5015636;28;20951;-78
2023/07/20 09:01:13;;;;;;;7.63;2.67;;;25.90;1.00;;;;;;5007733;28;20938;-74
2023/07/20 09:03:39;;;;;;;5.27;2.80;;;26.00;1.00;;;;;;5006340;28;20468;-76
2023/07/20 09:06:05;;;;;;;6.63;3.00;;;25.90;1.00;;;;;;5006250;28;20482;-76
2023/07/20 09:08:31;;;;;;;5.80;2.60;;;25.80;1.00;;;;;;5006631;28;20959;-75
2023/07/20 09:10:57;;;;;;;11.10;3.00;;;25.70;1.00;;;;;;5002898;28;20444;-75
2023/07/20 09:13:24;;;;;;;7.30;2.97;;;25.30;1.00;;;;;;5003214;28;20688;-75
2023/07/20 09:15:54;;;;;;;11.77;2.90;;;25.20;1.00;;;;;;5005968;28;20182;-76
2023/07/20 09:18:28;;;;;;;4.53;2.13;;;27.00;1.00;;;;;;5007014;28;20432;-76
2023/07/20 09:20:59;;;;;;;5.17;2.10;;;28.50;1.00;;;;;;5005546;28;20655;-75
2023/07/20 09:23:37;;;;;;;5.03;2.33;;;29.80;1.00;;;;;;5003488;28;20583;-76
2023/07/20 09:26:13;;;;;;;4.17;2.33;;;29.30;1.00;;;;;;5008346;28;20320;-78
2023/07/20 09:28:44;;;;;;;4.45;2.70;;;28.50;1.00;;;;;;5001764;28;20185;-76
2023/07/20 09:31:18;;;;;;;7.50;2.50;;;27.80;1.00;;;;;;5009025;28;20209;-77
2023/07/20 09:33:44;;;;;;;3.93;2.40;;;27.10;1.00;;;;;;5024049;28;20241;-76
2023/07/20 09:36:13;;;;;;;4.93;2.70;;;27.20;1.00;;;;;;5007734;28;20285;-75
2023/07/20 09:38:42;;;;;;;6.63;2.60;;;28.30;1.00;;;;;;5010319;28;20189;-76
2023/07/20 09:41:12;;;;;;;6.07;2.35;;;29.80;1.00;;;;;;5011107;28;20648;-77
2023/07/20 09:43:38;;;;;;;7.20;2.60;;;31.60;1.00;;;;;;5013760;28;20279;-76
2023/07/20 09:46:04;;;;;;;6.40;2.53;;;33.30;1.00;;;;;;5012864;28;20181;-76
2023/07/20 09:48:30;;;;;;;4.47;2.30;;;34.80;1.00;;;;;;5004743;28;20186;-77
2023/07/20 09:50:56;;;;;;;4.07;2.20;;;35.10;1.00;;;;;;5013056;28;20217;-78
2023/07/20 09:53:25;;;;;;;3.40;2.10;;;34.50;1.00;;;;;;5011661;28;20280;-78
2023/07/20 09:55:52;;;;;;;4.90;2.42;;;33.70;1.00;;;;;;5011433;28;20189;-76
2023/07/20 09:58:18;;;;;;;3.78;2.40;;;33.00;1.00;;;;;;5011881;28;20182;-76
2023/07/20 10:00:47;;;;;;;6.13;2.35;;;32.00;1.00;;;;;;5010427;28;20181;-76
2023/07/20 10:03:17;;;;;;;6.47;2.35;;;32.20;1.00;;;;;;5010005;28;20726;-76
2023/07/20 10:05:47;;;;;;;5.95;2.45;;;33.30;1.00;;;;;;5012096;28;20244;-76
2023/07/20 10:08:16;;;;;;;6.38;2.30;;;34.60;1.00;;;;;;5010352;28;20212;-76
2023/07/20 10:10:45;;;;;;;3.33;2.10;;;34.90;1.00;;;;;;5011287;28;20601;-77
2023/07/20 10:13:17;;;;;;;5.30;2.33;;;34.90;1.00;;;;;;5011210;28;20221;-77
2023/07/20 10:15:50;;;;;;;7.25;3.05;;;33.10;1.00;;;;;;5011976;28;20197;-77
2023/07/20 10:18:42;;;;;;;4.97;2.60;;;32.00;1.00;;;;;;5010219;28;20299;-76
2023/07/20 10:21:09;;;;;;;4.18;2.20;;;32.00;1.00;;;;;;5015376;28;20174;-76
2023/07/20 10:23:35;;;;;;;6.47;2.33;;;33.20;1.00;;;;;;5006342;28;20647;-76
2023/07/20 10:26:02;;;;;;;4.63;2.47;;;33.70;1.00;;;;;;5011984;28;20260;-77
2023/07/20 10:28:28;;;;;;;10.85;3.50;;;32.90;1.00;;;;;;5011160;28;22133;-76
2023/07/20 10:30:54;;;;;;;6.65;2.35;;;31.80;1.00;;;;;;5009110;28;20209;-77
2023/07/20 10:33:21;;;;;;;8.45;3.20;;;30.60;1.00;;;;;;5010975;28;20205;-76
2023/07/20 10:36:00;;;;;;;4.45;2.38;;;29.90;1.00;;;;;;5011332;28;20465;-77
2023/07/20 10:38:54;;;;;;;6.88;2.90;;;29.90;1.00;;;;;;5014255;28;20177;-77
2023/07/20 10:41:20;;;;;;;4.45;2.47;;;31.30;1.00;;;;;;5009262;28;20178;-77
2023/07/20 10:43:47;;;;;;;6.38;2.47;;;32.00;1.00;;;;;;5011437;28;20706;-77
2023/07/20 10:46:13;;;;;;;4.38;2.47;;;33.90;1.00;;;;;;5011324;28;20196;-77
2023/07/20 10:49:04;;;;;;;5.53;2.70;;;33.70;1.00;;;;;;5011334;28;20190;-77
2023/07/20 10:51:38;;;;;;;4.38;2.40;;;32.40;1.00;;;;;;5011518;28;20182;-78
2023/07/20 10:54:03;;;;;;;5.10;2.60;;;31.80;1.00;;;;;;5010781;28;20216;-77
2023/07/20 10:56:29;;;;;;;4.22;2.28;;;32.60;1.00;;;;;;5010733;28;20182;-76
2023/07/20 10:58:59;;;;;;;10.85;2.40;;;32.30;1.00;;;;;;5010500;28;20186;-77
2023/07/20 11:01:30;;;;;;;5.40;2.65;;;32.90;1.00;;;;;;5009950;28;20660;-77
2023/07/20 11:04:00;;;;;;;4.03;2.28;;;33.90;1.00;;;;;;5011077;28;20264;-78
2023/07/20 11:06:25;;;;;;;5.70;2.30;;;35.30;1.00;;;;;;5010782;28;20197;-77
2023/07/20 11:09:04;;;;;;;7.70;2.47;;;37.10;1.00;;;;;;5009254;28;20548;-77
2023/07/20 11:11:33;;;;;;;7.68;2.30;;;37.10;1.00;;;;;;5011193;28;20185;-77
2023/07/20 11:14:06;;;;;;;4.30;2.20;;;37.30;1.00;;;;;;5010728;28;20672;-77
2023/07/20 11:16:46;;;;;;;5.03;2.20;;;37.00;1.00;;;;;;5008815;28;20240;-77
2023/07/20 11:19:20;;;;;;;7.05;2.20;;;37.50;1.00;;;;;;5010989;28;20182;-78
2023/07/20 11:21:49;;;;;;;3.90;2.45;;;37.60;1.00;;;;;;5009634;28;20267;-77
2023/07/20 11:24:15;;;;;;;3.90;2.20;;;37.10;1.00;;;;;;5009152;28;20259;-78
2023/07/20 11:26:45;;;;;;;4.55;2.05;;;37.20;1.00;;;;;;5010843;28;20186;-77
2023/07/20 11:29:12;;;;;;;4.93;2.20;;;38.20;1.00;;;;;;5011029;28;20656;-78
2023/07/20 11:31:39;;;;;;;5.50;2.47;;;38.80;1.00;;;;;;5006768;28;20268;-78
2023/07/20 11:34:05;;;;;;;4.15;2.13;;;39.40;1.00;;;;;;5005822;28;20213;-78
2023/07/20 11:36:31;;;;;;;5.20;2.20;;;39.10;1.00;;;;;;5009090;28;20652;-78
2023/07/20 11:38:58;;;;;;;3.70;2.10;;;37.60;1.00;;;;;;5009222;28;20186;-77
2023/07/20 11:41:26;;;;;;;4.47;2.10;;;35.90;1.00;;;;;;5010205;28;20684;-78
2023/07/20 11:43:51;;;;;;;5.40;2.30;;;34.20;1.00;;;;;;5010154;28;20296;-77
2023/07/20 11:46:17;;;;;;;8.48;2.60;;;34.40;1.00;;;;;;5010073;28;20285;-77
2023/07/20 11:48:43;;;;;;;3.55;1.80;;;36.50;1.00;;;;;;5008856;28;20275;-78
2023/07/20 11:51:16;;;;;;;4.32;2.00;;;37.70;1.00;;;;;;5010379;28;20178;-78
2023/07/20 11:53:46;;;;;;;4.28;2.30;;;38.50;1.00;;;;;;5008917;28;20287;-77
2023/07/20 11:56:12;;;;;;;3.88;2.20;;;36.90;1.00;;;;;;5005619;28;20185;-75
2023/07/20 11:58:43;;;;;;;3.30;2.15;;;36.10;1.00;;;;;;5007052;28;20169;-78
2023/07/20 12:01:09;;;;;;;5.28;2.53;;;37.80;1.00;;;;;;5007486;28;20261;-78
2023/07/20 12:03:34;;;;;;;3.90;2.00;;;39.00;1.00;;;;;;5005245;28;20626;-78
2023/07/20 12:06:10;;;;;;;3.15;2.03;;;38.80;1.00;;;;;;5007659;28;20189;-77
2023/07/20 12:08:39;;;;;;;5.05;2.38;;;39.10;1.00;;;;;;5007585;28;20181;-77
2023/07/20 12:11:05;;;;;;;4.25;1.95;;;39.90;1.00;;;;;;5010020;28;20199;-77
2023/07/20 12:13:46;;;;;;;4.78;2.30;;;39.80;1.00;;;;;;5008098;28;20587;-76
2023/07/20 12:16:16;;;;;;;5.45;2.00;;;39.90;1.00;;;;;;5004454;28;20663;-78
2023/07/20 12:18:43;;;;;;;3.97;2.05;;;40.70;1.00;;;;;;5009404;28;20640;-79
2023/07/20 12:21:09;;;;;;;3.42;2.25;;;40.10;1.00;;;;;;5007872;28;20185;-79
2023/07/20 12:23:40;;;;;;;4.78;2.03;;;39.40;1.00;;;;;;5006399;28;20748;-78
2023/07/20 12:26:09;;;;;;;3.85;1.90;;;39.90;1.00;;;;;;5008794;28;20525;-78
2023/07/20 12:28:42;;;;;;;5.50;1.88;;;40.10;1.00;;;;;;5007506;28;20225;-79
2023/07/20 12:31:09;;;;;;;2.92;1.60;;;40.40;1.00;;;;;;5002194;28;20182;-79
2023/07/20 12:33:35;;;;;;;3.58;1.95;;;40.20;1.00;;;;;;5005035;28;20205;-79
2023/07/20 12:36:01;;;;;;;5.47;2.20;;;39.40;1.00;;;;;;5008316;28;20188;-78
2023/07/20 12:38:28;;;;;;;3.28;1.98;;;39.10;1.00;;;;;;5007810;28;20184;-78
2023/07/20 12:40:57;;;;;;;4.85;2.30;;;39.20;1.00;;;;;;5008502;28;20610;-78
2023/07/20 12:43:22;;;;;;;4.10;1.98;;;40.00;1.00;;;;;;5005419;28;20213;-78
2023/07/20 12:45:48;;;;;;;3.72;2.00;;;41.30;1.00;;;;;;5008977;28;20182;-78
2023/07/20 12:48:13;;;;;;;6.30;2.28;;;41.40;1.00;;;;;;5007951;28;20595;-79
2023/07/20 12:50:39;;;;;;;6.75;2.42;;;41.60;1.00;;;;;;5007990;28;20190;-78
2023/07/20 12:53:05;;;;;;;7.20;2.08;;;42.20;1.00;;;;;;5006729;28;20301;-78
2023/07/20 12:55:31;;;;;;;7.10;2.10;;;40.60;1.00;;;;;;5008248;28;21790;-79
2023/07/20 12:57:56;;;;;;;3.83;2.20;;;40.20;1.00;;;;;;5008211;28;20264;-78